createdAt,value
2022-10-06T00:01:06.768Z,0.40
2022-10-06T00:03:34.041Z,0.40
2022-10-06T00:06:02.546Z,0.20
2022-10-06T00:08:35.116Z,0.28
2022-10-06T00:11:03.098Z,0.30
2022-10-06T00:13:31.772Z,0.40
2022-10-06T00:16:00.396Z,0.38
2022-10-06T00:18:29.119Z,0.20
2022-10-06T00:20:58.856Z,0.10
2022-10-06T00:23:27.100Z,0.20
2022-10-06T00:25:54.322Z,0.25
2022-10-06T00:28:21.531Z,0.20
2022-10-06T00:30:49.112Z,0.20
2022-10-06T00:33:17.910Z,0.10
2022-10-06T00:35:46.945Z,0.17
2022-10-06T00:38:16.580Z,0.20
2022-10-06T00:40:49.704Z,0.45
2022-10-06T00:43:54.318Z,0.20
2022-10-06T00:46:40.921Z,0.20
2022-10-06T00:49:08.068Z,0.20
2022-10-06T00:51:39.379Z,0.30
2022-10-06T00:54:07.503Z,0.10
2022-10-06T00:56:35.011Z,0.20
2022-10-06T00:59:02.146Z,0.25
2022-10-06T01:01:32.548Z,0.10
2022-10-06T01:04:09.568Z,0.10
2022-10-06T01:06:55.536Z,0.20
2022-10-06T01:09:24.007Z,0.10
2022-10-06T01:11:55.175Z,0.10
2022-10-06T01:14:24.735Z,0.10
2022-10-06T01:16:57.925Z,0.10
2022-10-06T01:19:44.216Z,0.20
2022-10-06T01:22:15.375Z,0.20
2022-10-06T01:24:46.911Z,0.10
2022-10-06T01:27:16.098Z,0.40
2022-10-06T01:29:43.509Z,0.45
2022-10-06T01:32:10.655Z,0.20
2022-10-06T01:34:37.859Z,0.30
2022-10-06T01:37:05.661Z,0.90
2022-10-06T01:39:33.630Z,0.50
2022-10-06T01:42:00.944Z,0.40
2022-10-06T01:44:28.095Z,0.50
2022-10-06T01:46:55.233Z,0.47
2022-10-06T01:49:22.292Z,0.40
2022-10-06T01:51:50.127Z,0.35
2022-10-06T01:54:17.591Z,0.30
2022-10-06T01:56:44.788Z,0.60
2022-10-06T01:59:11.946Z,0.40
2022-10-06T02:01:39.156Z,0.50
2022-10-06T02:04:06.398Z,0.75
2022-10-06T02:06:33.637Z,0.60
2022-10-06T02:09:01.256Z,0.25
2022-10-06T02:11:28.958Z,0.40
2022-10-06T02:13:56.015Z,0.20
2022-10-06T02:16:23.778Z,0.40
2022-10-06T02:18:50.924Z,0.32
2022-10-06T02:21:21.813Z,0.70
2022-10-06T02:23:49.498Z,0.20
2022-10-06T02:26:18.341Z,1.10
2022-10-06T02:28:47.463Z,0.25
2022-10-06T02:31:19.454Z,0.57
2022-10-06T02:33:47.969Z,0.90
2022-10-06T02:36:16.843Z,0.60
2022-10-06T02:38:45.561Z,0.60
2022-10-06T02:41:12.627Z,0.68
2022-10-06T02:43:40.098Z,1.23
2022-10-06T02:46:12.192Z,0.73
2022-10-06T02:48:44.702Z,0.73
2022-10-06T02:51:15.718Z,0.80
2022-10-06T02:53:45.966Z,0.45
2022-10-06T02:56:18.954Z,0.30
2022-10-06T02:58:50.928Z,0.30
2022-10-06T03:01:26.847Z,1.05
2022-10-06T03:03:56.893Z,0.80
2022-10-06T03:06:26.242Z,0.63
2022-10-06T03:09:02.095Z,1.10
2022-10-06T03:11:32.912Z,0.50
2022-10-06T03:14:00.507Z,0.60
2022-10-06T03:16:28.766Z,0.60
2022-10-06T03:18:58.375Z,0.60
2022-10-06T03:21:29.150Z,1.13
2022-10-06T03:23:57.467Z,0.98
2022-10-06T03:26:46.473Z,0.90
2022-10-06T03:29:16.236Z,0.60
2022-10-06T03:31:47.897Z,1.17
2022-10-06T03:34:15.294Z,0.57
2022-10-06T03:36:44.397Z,1.10
2022-10-06T03:39:12.229Z,1.15
2022-10-06T03:41:40.609Z,0.98
2022-10-06T03:44:09.805Z,1.48
2022-10-06T03:46:39.894Z,0.80
2022-10-06T03:49:08.105Z,0.60
2022-10-06T03:51:40.944Z,0.60
2022-10-06T03:54:12.966Z,0.68
2022-10-06T03:56:43.276Z,0.98
2022-10-06T03:59:20.933Z,1.23
2022-10-06T04:01:49.892Z,1.27
2022-10-06T04:04:24.770Z,1.35
2022-10-06T04:06:57.911Z,0.82
2022-10-06T04:09:25.119Z,0.98
2022-10-06T04:11:52.659Z,1.05
2022-10-06T04:14:20.862Z,1.10
2022-10-06T04:16:50.456Z,1.15
2022-10-06T04:19:29.339Z,1.10
2022-10-06T04:21:56.569Z,1.08
2022-10-06T04:24:25.555Z,1.10
2022-10-06T04:26:53.287Z,1.20
2022-10-06T04:29:21.819Z,1.23
2022-10-06T04:31:53.818Z,1.35
2022-10-06T04:34:35.890Z,1.08
2022-10-06T04:37:04.195Z,1.13
2022-10-06T04:39:31.547Z,0.90
2022-10-06T04:41:58.781Z,0.85
2022-10-06T04:44:29.530Z,1.10
2022-10-06T04:47:01.346Z,1.20
2022-10-06T04:49:28.676Z,0.77
2022-10-06T04:51:57.261Z,1.42
2022-10-06T04:54:30.059Z,1.23
2022-10-06T04:57:00.881Z,1.65
2022-10-06T04:59:48.377Z,1.23
2022-10-06T05:02:17.460Z,0.98
2022-10-06T05:04:45.581Z,1.00
2022-10-06T05:07:14.800Z,0.75
2022-10-06T05:09:42.579Z,0.65
2022-10-06T05:12:10.978Z,0.50
2022-10-06T05:14:38.581Z,0.63
2022-10-06T05:17:06.116Z,0.60
2022-10-06T05:19:34.758Z,0.57
2022-10-06T05:22:02.348Z,0.90
2022-10-06T05:24:31.782Z,0.43
2022-10-06T05:27:02.206Z,1.17
2022-10-06T05:29:29.850Z,0.70
2022-10-06T05:31:57.616Z,0.30
2022-10-06T05:34:26.039Z,0.60
2022-10-06T05:36:53.224Z,0.60
2022-10-06T05:39:20.980Z,0.32
2022-10-06T05:41:54.956Z,0.30
2022-10-06T05:44:22.255Z,0.50
2022-10-06T05:46:49.393Z,0.35
2022-10-06T05:49:16.601Z,0.40
2022-10-06T05:51:56.869Z,0.40
2022-10-06T05:54:27.364Z,0.30
2022-10-06T05:56:54.945Z,0.40
2022-10-06T05:59:22.859Z,0.32
2022-10-06T06:01:51.649Z,0.50
2022-10-06T06:04:27.170Z,0.40
2022-10-06T06:06:56.703Z,0.38
2022-10-06T06:09:26.436Z,0.50
2022-10-06T06:11:55.759Z,0.38
2022-10-06T06:14:49.573Z,0.30
2022-10-06T06:17:21.131Z,0.52
2022-10-06T06:19:48.285Z,0.50
2022-10-06T06:22:16.252Z,0.43
2022-10-06T06:24:45.861Z,0.40
2022-10-06T06:27:13.396Z,0.50
2022-10-06T06:29:41.129Z,0.50
2022-10-06T06:32:09.754Z,0.60
2022-10-06T06:34:37.808Z,0.57
2022-10-06T06:37:09.418Z,0.40
2022-10-06T06:39:39.441Z,0.40
2022-10-06T06:42:08.598Z,0.60
2022-10-06T06:44:55.963Z,0.40
2022-10-06T06:47:43.431Z,0.35
2022-10-06T06:50:10.875Z,0.60
2022-10-06T06:52:41.958Z,0.40
2022-10-06T06:55:11.926Z,0.43
2022-10-06T06:57:39.152Z,0.63
2022-10-06T07:00:09.207Z,0.52
2022-10-06T07:02:38.856Z,0.50
2022-10-06T07:05:06.617Z,0.70
2022-10-06T07:07:33.742Z,0.57
2022-10-06T07:10:01.296Z,0.40
2022-10-06T07:12:31.379Z,0.50
2022-10-06T07:15:18.542Z,0.60
2022-10-06T07:18:08.531Z,0.40
2022-10-06T07:20:54.653Z,0.70
2022-10-06T07:23:41.978Z,1.08
2022-10-06T07:26:16.546Z,1.58
2022-10-06T07:28:44.658Z,0.77
2022-10-06T07:31:14.051Z,0.70
2022-10-06T07:33:41.949Z,0.60
2022-10-06T07:36:11.244Z,0.70
2022-10-06T07:38:41.692Z,0.60
2022-10-06T07:41:24.401Z,0.73
2022-10-06T07:43:58.256Z,1.13
2022-10-06T07:46:28.216Z,0.60
2022-10-06T07:49:17.438Z,0.82
2022-10-06T07:51:45.403Z,0.80
2022-10-06T07:54:12.670Z,0.52
2022-10-06T07:57:00.099Z,0.93
2022-10-06T07:59:27.251Z,0.85
2022-10-06T08:01:55.052Z,0.65
2022-10-06T08:04:22.190Z,1.00
2022-10-06T08:06:49.571Z,1.25
2022-10-06T08:09:16.619Z,0.90
2022-10-06T08:11:45.212Z,0.80
2022-10-06T08:14:15.101Z,1.13
2022-10-06T08:16:42.397Z,1.05
2022-10-06T08:19:09.528Z,0.90
2022-10-06T08:21:36.647Z,1.10
2022-10-06T08:24:03.816Z,1.63
2022-10-06T08:26:31.393Z,1.38
2022-10-06T08:28:59.860Z,1.60
2022-10-06T08:31:27.155Z,1.20
2022-10-06T08:33:56.875Z,1.63
2022-10-06T08:36:30.909Z,1.33
2022-10-06T08:41:52.052Z,1.55
2022-10-06T08:44:34.204Z,2.30
2022-10-06T08:47:30.180Z,1.10
2022-10-06T08:49:58.290Z,1.40
2022-10-06T08:52:48.882Z,1.45
2022-10-06T08:55:32.789Z,1.65
2022-10-06T08:58:03.253Z,1.15
2022-10-06T09:00:33.246Z,1.80
2022-10-06T09:03:02.320Z,0.90
2022-10-06T09:05:31.288Z,1.48
2022-10-06T09:08:24.736Z,0.88
2022-10-06T09:11:10.506Z,0.93
2022-10-06T09:16:10.592Z,0.70
2022-10-06T09:19:07.708Z,0.73
2022-10-06T09:21:52.499Z,1.27
2022-10-06T09:24:35.239Z,0.50
2022-10-06T09:27:23.412Z,0.70
2022-10-06T09:29:51.686Z,0.75
2022-10-06T09:32:24.444Z,1.00
2022-10-06T09:34:57.201Z,0.40
2022-10-06T09:37:24.461Z,0.60
2022-10-06T09:39:53.392Z,0.40
2022-10-06T09:42:26.064Z,0.88
2022-10-06T09:45:06.751Z,0.65
2022-10-06T09:47:39.982Z,0.70
2022-10-06T09:50:12.719Z,0.60
2022-10-06T09:52:41.874Z,0.82
2022-10-06T09:55:17.972Z,1.30
2022-10-06T09:57:51.080Z,1.85
2022-10-06T10:00:36.261Z,0.95
2022-10-06T10:03:07.106Z,0.77
2022-10-06T10:05:37.510Z,1.65
2022-10-06T10:08:32.258Z,1.17
2022-10-06T10:11:28.474Z,1.48
2022-10-06T10:16:34.722Z,1.10
2022-10-06T10:19:06.115Z,1.17
2022-10-06T10:21:34.966Z,0.68
2022-10-06T10:24:06.265Z,0.73
2022-10-06T10:26:53.776Z,1.02
2022-10-06T10:29:48.912Z,0.98
2022-10-06T10:32:36.897Z,0.77
2022-10-06T10:35:37.397Z,0.90
2022-10-06T10:38:20.711Z,1.45
2022-10-06T10:41:00.302Z,0.52
2022-10-06T10:43:36.239Z,1.45
2022-10-06T10:46:03.277Z,0.80
2022-10-06T10:48:49.864Z,0.73
2022-10-06T10:51:34.573Z,0.80
2022-10-06T10:54:39.707Z,1.48
2022-10-06T10:57:22.186Z,1.00
2022-10-06T10:59:59.891Z,1.02
2022-10-06T11:02:28.696Z,1.13
2022-10-06T11:05:23.123Z,0.55
2022-10-06T11:08:16.802Z,0.80
2022-10-06T11:10:49.745Z,1.27
2022-10-06T11:13:31.774Z,0.85
2022-10-06T11:16:17.476Z,1.02
